Terminal Aerodrome Forecast
Issued by NWS

Home | Current Version | Previous Version | Graphics & Text | Print | Product List | Glossary On
Versions: 1 2 3 4 5 6 7 8 9 10 11 12 13 14 15 16 17
000
FTUS42 KMHX 170722 AAA
TAFPGV
TAF AMD
KPGV 170722Z 1707/1806 VRB03KT P6SM SCT030 OVC040
      TEMPO 1707/1708 BKN001
     FM171300 VRB04KT P6SM BKN040
      AMD LTD TO CLD VIS AND WIND=

USA.gov is the U.S. government's official web portal to all federal, state and local government web resources and services.